This demonstration page uses our WeatherBlox Daily Observations layout. Learn more.

39.92423, -83.80882

Hourly Observations for November 18, 2019

Temp ( °F °C ) Dew Point ( °F °C ) Humidity (%) Winds ( mph kmh ) Pressure ( in mb ) Visibility ( mi km ) Precip ( " mm )
12:56 am 00:56 Mostly Cloudy 36 2.2 32 0 86 86 Calm 29.83 1010 10 16.09344 0 0
1:56 am 01:56 Mostly Clear 36 2.2 33 0.6 89 89 S 3 6 29.83 1010 10 16.09344 0 0
2:56 am 02:56 Clear 33 0.6 31 -0.6 92 92 E 3 6 29.8 1009 10 16.09344 0 0
3:56 am 03:56 Clear 33 0.6 31 -0.6 92 92 Calm 29.8 1009 10 16.09344 0 0
4:56 am 04:56 Clear 30 -1.1 29 -1.7 96 96 Calm 29.8 1009 9 14.484096 0 0
5:56 am 05:56 Clear 29 -1.7 29 -1.7 100 100 Calm 29.8 1009 10 16.09344 0 0
6:56 am 06:56 Clear 30 -1.1 30 -1.1 100 100 SW 3 6 29.8 1009 9 14.484096 0 0
7:56 am 07:56 Partly Cloudy 30 -1.1 29 -1.7 96 96 Calm 29.8 1009 8 12.874752 0 0
8:56 am 08:56 Mostly Sunny 33 0.6 32 0 96 96 Calm 29.8 1009 8 12.874752 0 0
9:56 am 09:56 Sunny 40 4.4 33 0.6 77 77 W 3 6 29.8 1009 10 16.09344 0 0
10:56 am 10:56 Sunny 45 7.2 33 0.6 63 63 NW 5 7 29.8 1009 10 16.09344 0 0
11:56 am 11:56 Mostly Cloudy 47 8.3 33 0.6 59 59 VRB 3 6 29.77 1008 10 16.09344 0 0
12:56 pm 12:56 Cloudy 46 7.8 34 1.1 63 63 WSW 8 13 29.74 1007 10 16.09344 0 0
1:56 pm 13:56 Cloudy 46 7.8 33 0.6 61 61 SW 12 19 29.74 1007 10 16.09344 0 0
2:56 pm 14:56 Cloudy 44 6.7 34 1.1 68 68 SW 13 20 29.74 1007 10 16.09344 0 0
3:56 pm 15:56 Cloudy 43 6.1 35 1.7 74 74 WSW 8 13 29.74 1007 8 12.874752 0 0
4:31 pm 16:31 Cloudy 43 6 36 2 76 76 WSW 9 15 29.77 1008 8 12.874752 0 0
4:42 pm 16:42 Cloudy 43 6 36 2 76 76 SW 8 13 29.77 1008 8 12.874752 0 0
4:56 pm 16:56 Cloudy 43 6.1 36 2.2 76 76 WSW 9 15 29.74 1007 7 11.265408 0 0
5:12 pm 17:12 Cloudy 43 6 36 2 76 76 W 6 9 29.77 1008 7 11.265408 0 0
5:56 pm 17:56 Cloudy 42 5.6 37 2.8 82 82 W 9 15 29.77 1008 7 11.265408 0 0
6:51 pm 18:51 Cloudy with Mist and Fog 41 5 37 3 87 87 W 10 17 29.8 1009 6 9.656064 0 0
6:56 pm 18:56 Cloudy 41 5 38 3.3 89 89 W 10 17 29.8 1009 7 11.265408 0 0
7:56 pm 19:56 Cloudy with Mist and Fog 40 4.4 38 3.3 93 93 W 7 11 29.8 1009 5 8.04672 0 0
8:56 pm 20:56 Cloudy with Mist and Fog 39 3.9 39 3.9 100 100 WSW 7 11 29.8 1009 4 6.437376 0 0
9:56 pm 21:56 Cloudy with Mist and Fog 39 3.9 38 3.3 96 96 WSW 7 11 29.8 1009 5 8.04672 0 0
10:56 pm 22:56 Cloudy with Mist and Fog 39 3.9 38 3.3 96 96 W 8 13 29.77 1008 6 9.656064 0 0
11:29 pm 23:29 Cloudy with Mist and Fog 39 4 39 4 100 100 WSW 8 13 29.8 1009 3 4.828032 0 0
11:56 pm 23:56 Cloudy with Mist and Fog 39 3.9 39 3.9 100 100 W 6 9 29.8 1009 6 9.656064 0 0

Powered by AerisWeather